This is the latest recevied weather packets stored in our database for station/object SP6FIG-13. If no packets are shown the sender has not sent any weather packets the latest 1 day(s).
| Time | Temp. | Humidity | Pressure | Rain* | Wind** | Luminosity | Snow |
|---|---|---|---|---|---|---|---|
| 1778092469 | 23.89° C | 43% | 1006.7 hPa | - | - | - | - |
| 1778091869 | 23.89° C | 43% | 1006.5 hPa | - | - | - | - |
| 1778091569 | 23.89° C | 43% | 1006.7 hPa | - | - | - | - |
| 1778091269 | 24.44° C | 43% | 1006.1 hPa | - | - | - | - |
| 1778090969 | 23.89° C | 43% | 1006.2 hPa | - | - | - | - |
| 1778090669 | 23.89° C | 43% | 1006.3 hPa | - | - | - | - |
| 1778090369 | 23.89° C | 43% | 1006.5 hPa | - | - | - | - |
| 1778089769 | 24.44° C | 42% | 1006.4 hPa | - | - | - | - |
| 1778088869 | 23.89° C | 42% | 1006.3 hPa | - | - | - | - |
| 1778088569 | 23.89° C | 42% | 1006.5 hPa | - | - | - | - |
| 1778087369 | 23.89° C | 42% | 1005.9 hPa | - | - | - | - |
| 1778087069 | 23.89° C | 42% | 1005.7 hPa | - | - | - | - |
| 1778086769 | 23.89° C | 41% | 1005.6 hPa | - | - | - | - |
| 1778086469 | 24.44° C | 41% | 1005.2 hPa | - | - | - | - |
| 1778086169 | 23.89° C | 43% | 1005 hPa | - | - | - | - |
| 1778085869 | 23.89° C | 42% | 1004.8 hPa | - | - | - | - |
| 1778085569 | 23.33° C | 42% | 1005.5 hPa | - | - | - | - |
| 1778085269 | 23.33° C | 42% | 1005.7 hPa | - | - | - | - |
| 1778084669 | 23.33° C | 42% | 1005.7 hPa | - | - | - | - |
| 1778084369 | 23.33° C | 42% | 1005.9 hPa | - | - | - | - |
| 1778084069 | 23.33° C | 42% | 1006 hPa | - | - | - | - |
| 1778082569 | 21.67° C | 39% | 1008.1 hPa | - | - | - | - |
| 1778082269 | 22.78° C | 36% | 1006.6 hPa | - | - | - | - |
| 1778081969 | 23.33° C | 35% | 1006 hPa | - | - | - | - |
| 1778081669 | 23.33° C | 34% | 1006.3 hPa | - | - | - | - |
* Rain since midnight (hover to see other rain measurements)
** Current wind speed in m/s (hover to see current wind gust speed)